createdAt,value
2023-08-05T00:02:49.880Z,101614.06
2023-08-05T00:07:55.103Z,101605.44
2023-08-05T00:12:58.863Z,101601.66
2023-08-05T00:18:02.719Z,101593.69
2023-08-05T00:23:07.892Z,101600.47
2023-08-05T00:28:11.620Z,101597.72
2023-08-05T00:33:15.987Z,101587.97
2023-08-05T00:38:21.243Z,101587.97
2023-08-05T00:43:25.071Z,101584.41
2023-08-05T00:48:28.913Z,101576.34
2023-08-05T00:53:36.084Z,101570.97
2023-08-05T00:58:40.007Z,101564.66
2023-08-05T01:03:43.845Z,101561.16
2023-08-05T01:08:50.289Z,101553.16
2023-08-05T01:13:54.045Z,101552.94
2023-08-05T01:19:00.036Z,101556.41
2023-08-05T01:24:15.034Z,101557.00
2023-08-05T01:29:20.204Z,101559.22
2023-08-05T01:34:24.393Z,101558.50
2023-08-05T01:39:28.238Z,101556.66
2023-08-05T01:44:33.394Z,101556.16
2023-08-05T01:49:38.037Z,101568.25
2023-08-05T01:54:41.780Z,101554.41
2023-08-05T01:59:46.860Z,101567.34
2023-08-05T02:04:50.672Z,101565.06
2023-08-05T02:09:54.405Z,101556.47
2023-08-05T02:14:59.487Z,101548.28
2023-08-05T02:20:05.274Z,101550.44
2023-08-05T02:25:09.758Z,101538.37
2023-08-05T02:30:14.855Z,101530.56
2023-08-05T02:35:18.635Z,101522.44
2023-08-05T02:40:22.382Z,101517.94
2023-08-05T02:45:27.521Z,101523.25
2023-08-05T02:50:32.197Z,101512.72
2023-08-05T02:55:36.095Z,101517.84
2023-08-05T03:00:42.043Z,101505.34
2023-08-05T03:05:46.422Z,101504.37
2023-08-05T03:10:58.388Z,101489.62
2023-08-05T03:16:11.852Z,101481.75
2023-08-05T03:21:16.151Z,101477.94
2023-08-05T03:26:19.959Z,101468.28
2023-08-05T03:31:25.555Z,101461.16
2023-08-05T03:36:30.187Z,101455.88
2023-08-05T03:41:35.080Z,101447.13
2023-08-05T03:46:40.358Z,101452.28
2023-08-05T03:51:44.147Z,101450.56
2023-08-05T03:56:48.341Z,101450.50
2023-08-05T04:01:56.285Z,101440.03
2023-08-05T04:07:00.016Z,101442.59
2023-08-05T04:12:06.445Z,101446.06
2023-08-05T04:17:13.382Z,101421.75
2023-08-05T04:22:20.622Z,101420.63
2023-08-05T04:27:25.749Z,101418.91
2023-08-05T04:32:30.894Z,101418.09
2023-08-05T04:37:34.738Z,101407.75
2023-08-05T04:42:38.521Z,101400.59
2023-08-05T04:47:43.746Z,101388.34
2023-08-05T04:52:47.802Z,101391.91
2023-08-05T04:57:54.409Z,101390.78
2023-08-05T05:02:59.621Z,101385.81
2023-08-05T05:08:03.543Z,101383.25
2023-08-05T05:13:07.311Z,101385.03
2023-08-05T05:18:12.435Z,101388.41
2023-08-05T05:23:16.313Z,101389.37
2023-08-05T05:28:20.078Z,101371.22
2023-08-05T05:33:25.165Z,101372.34
2023-08-05T05:38:28.919Z,101369.00
2023-08-05T05:43:32.656Z,101364.63
2023-08-05T05:48:37.804Z,101356.19
2023-08-05T05:53:41.541Z,101347.28
2023-08-05T05:58:45.401Z,101341.53
2023-08-05T06:03:51.362Z,101346.88
2023-08-05T06:08:55.256Z,101337.50
2023-08-05T06:13:59.157Z,101347.22
2023-08-05T06:19:04.284Z,101346.69
2023-08-05T06:24:08.109Z,101339.91
2023-08-05T06:29:12.089Z,101341.16
2023-08-05T06:34:17.251Z,101321.47
2023-08-05T06:39:21.160Z,101320.91
2023-08-05T06:44:24.902Z,101322.97
2023-08-05T06:49:29.982Z,101323.28
2023-08-05T06:54:33.819Z,101322.47
2023-08-05T06:59:37.565Z,101312.56
2023-08-05T07:04:42.761Z,101303.47
2023-08-05T07:09:46.561Z,101306.44
2023-08-05T07:14:50.357Z,101303.06
2023-08-05T07:19:55.435Z,101295.41
2023-08-05T07:24:59.147Z,101296.28
2023-08-05T07:30:02.903Z,101298.41
2023-08-05T07:35:09.673Z,101294.91
2023-08-05T07:40:14.231Z,101291.16
2023-08-05T07:45:19.337Z,101278.69
2023-08-05T07:50:25.687Z,101272.53
2023-08-05T07:55:33.459Z,101260.09
2023-08-05T08:00:37.302Z,101263.56
2023-08-05T08:05:42.865Z,101240.22
2023-08-05T08:10:47.365Z,101240.50
2023-08-05T08:15:51.184Z,101220.41
2023-08-05T08:20:56.347Z,101200.88
2023-08-05T08:26:00.851Z,101197.06
2023-08-05T08:31:04.797Z,101187.53
2023-08-05T08:36:09.996Z,101182.59
2023-08-05T08:41:13.832Z,101174.00
2023-08-05T08:46:20.541Z,101177.88
2023-08-05T08:51:25.958Z,101154.94
2023-08-05T08:56:29.763Z,101153.91
2023-08-05T09:01:33.879Z,101150.69
2023-08-05T09:06:40.563Z,101140.09
2023-08-05T09:11:44.295Z,101125.16
2023-08-05T09:17:03.697Z,101125.50
2023-08-05T09:22:09.099Z,101121.97
2023-08-05T09:27:12.982Z,101124.34
2023-08-05T09:32:22.551Z,101114.44
2023-08-05T09:37:39.139Z,101106.22
2023-08-05T09:42:43.707Z,101113.09
2023-08-05T09:47:48.706Z,101105.22
2023-08-05T09:52:58.251Z,101094.09
2023-08-05T09:58:02.691Z,101093.88
2023-08-05T10:03:09.446Z,101078.78
2023-08-05T10:08:15.145Z,101070.75
2023-08-05T10:13:21.691Z,101064.34
2023-08-05T10:18:27.360Z,101062.03
2023-08-05T10:23:34.918Z,101059.59
2023-08-05T10:28:42.871Z,101060.94
2023-08-05T10:34:11.453Z,101055.16
2023-08-05T10:39:44.921Z,101046.19
2023-08-05T10:44:51.375Z,101042.78
2023-08-05T10:50:00.454Z,101043.31
2023-08-05T10:55:13.602Z,101039.50
2023-08-05T11:00:22.890Z,101033.06
2023-08-05T11:05:26.955Z,101024.19
2023-08-05T11:10:33.447Z,101029.13
2023-08-05T11:15:41.912Z,101030.88
2023-08-05T11:20:48.341Z,101027.63
2023-08-05T11:25:53.865Z,101024.19
2023-08-05T11:30:57.773Z,101012.75
2023-08-05T11:36:01.595Z,101028.84
2023-08-05T11:41:06.742Z,101032.84
2023-08-05T11:46:25.282Z,101013.59
2023-08-05T11:51:29.004Z,100994.19
2023-08-05T11:56:34.775Z,100964.62
2023-08-05T12:01:41.969Z,100957.62
2023-08-05T12:06:48.389Z,100965.53
2023-08-05T12:11:58.931Z,100954.03
2023-08-05T12:17:02.783Z,100944.41
2023-08-05T12:22:06.581Z,100968.69
2023-08-05T12:27:11.719Z,100970.25
2023-08-05T12:32:15.489Z,100977.31
2023-08-05T12:37:19.542Z,100963.41
2023-08-05T12:42:24.735Z,100971.88
2023-08-05T12:47:28.978Z,100973.69
2023-08-05T12:52:33.059Z,100954.44
2023-08-05T12:57:38.162Z,100940.41
2023-08-05T13:02:41.963Z,100941.19
2023-08-05T13:07:45.755Z,100929.34
2023-08-05T13:12:50.957Z,100905.28
2023-08-05T13:17:54.854Z,100901.59
2023-08-05T13:22:58.721Z,100890.09
2023-08-05T13:28:03.913Z,100894.69
2023-08-05T13:33:07.773Z,100905.09
2023-08-05T13:38:11.542Z,100885.22
2023-08-05T13:43:16.670Z,100885.44
2023-08-05T13:48:20.557Z,100881.88
2023-08-05T13:53:24.358Z,100863.84
2023-08-05T13:58:29.616Z,100847.72
2023-08-05T14:03:33.529Z,100841.94
2023-08-05T14:08:37.398Z,100822.28
2023-08-05T14:13:43.840Z,100810.13
2023-08-05T14:18:47.620Z,100796.97
2023-08-05T14:23:51.370Z,100790.09
2023-08-05T14:28:56.480Z,100793.06
2023-08-05T14:34:00.305Z,100775.97
2023-08-05T14:39:05.704Z,100773.63
2023-08-05T14:44:11.076Z,100758.94
2023-08-05T14:49:14.986Z,100752.16
2023-08-05T14:54:18.746Z,100752.06
2023-08-05T14:59:23.873Z,100745.87
2023-08-05T15:04:27.680Z,100738.00
2023-08-05T15:09:31.437Z,100730.97
2023-08-05T15:14:36.569Z,100725.69
2023-08-05T15:19:40.337Z,100725.03
2023-08-05T15:24:44.166Z,100712.28
2023-08-05T15:29:58.298Z,100692.13
2023-08-05T15:35:02.174Z,100688.84
2023-08-05T15:40:07.078Z,100664.47
2023-08-05T15:45:12.483Z,100651.59
2023-08-05T15:50:19.407Z,100634.31
2023-08-05T15:55:23.371Z,100639.59
2023-08-05T16:00:28.558Z,100626.69
2023-08-05T16:05:32.386Z,100619.87
2023-08-05T16:10:36.146Z,100608.00
2023-08-05T16:15:41.308Z,100602.53
2023-08-05T16:20:45.168Z,100597.41
2023-08-05T16:25:48.922Z,100591.22
2023-08-05T16:30:55.111Z,100578.12
2023-08-05T16:35:58.929Z,100571.12
2023-08-05T16:41:03.067Z,100560.62
2023-08-05T16:46:08.942Z,100548.16
2023-08-05T16:51:12.728Z,100549.03
2023-08-05T16:56:16.570Z,100552.41
2023-08-05T17:01:21.980Z,100538.37
2023-08-05T17:06:26.377Z,100546.94
2023-08-05T17:11:30.241Z,100542.41
2023-08-05T17:16:35.485Z,100535.31
2023-08-05T17:21:39.271Z,100526.78
2023-08-05T17:26:43.016Z,100533.47
2023-08-05T17:31:48.168Z,100529.00
2023-08-05T17:36:51.885Z,100525.22
2023-08-05T17:41:55.662Z,100514.56
2023-08-05T17:47:00.794Z,100515.81
2023-08-05T17:52:05.134Z,100498.53
2023-08-05T17:57:08.942Z,100482.91
2023-08-05T18:02:14.050Z,100490.72
2023-08-05T18:07:17.859Z,100490.66
2023-08-05T18:12:21.623Z,100486.91
2023-08-05T18:17:26.772Z,100480.03
2023-08-05T18:22:30.546Z,100480.00
2023-08-05T18:27:34.686Z,100474.63
2023-08-05T18:32:39.892Z,100481.25
2023-08-05T18:37:43.690Z,100472.66
2023-08-05T18:42:47.499Z,100464.81
2023-08-05T18:47:52.695Z,100467.28
2023-08-05T18:52:56.408Z,100463.75
2023-08-05T18:58:00.199Z,100464.47
2023-08-05T19:03:05.327Z,100465.88
2023-08-05T19:08:09.133Z,100456.41
2023-08-05T19:13:12.925Z,100461.72
2023-08-05T19:18:18.055Z,100443.56
2023-08-05T19:23:21.817Z,100443.59
2023-08-05T19:28:25.591Z,100448.03
2023-08-05T19:33:30.700Z,100453.31
2023-08-05T19:38:34.465Z,100452.25
2023-08-05T19:43:38.773Z,100442.69
2023-08-05T19:48:44.467Z,100435.72
2023-08-05T19:53:48.479Z,100437.34
2023-08-05T19:58:52.267Z,100429.47
2023-08-05T20:03:57.358Z,100425.16
2023-08-05T20:09:01.133Z,100423.50
2023-08-05T20:14:04.951Z,100415.75
2023-08-05T20:19:10.147Z,100413.06
2023-08-05T20:24:17.594Z,100417.31
2023-08-05T20:29:23.344Z,100410.44
2023-08-05T20:34:30.232Z,100412.94
2023-08-05T20:39:33.982Z,100405.12
2023-08-05T20:44:37.757Z,100408.34
2023-08-05T20:49:43.582Z,100398.81
2023-08-05T20:54:47.530Z,100394.28
2023-08-05T20:59:51.333Z,100396.81
2023-08-05T21:04:57.123Z,100389.16
2023-08-05T21:10:01.072Z,100379.59
2023-08-05T21:15:05.493Z,100379.59
2023-08-05T21:20:12.088Z,100374.34
2023-08-05T21:25:16.050Z,100370.84
2023-08-05T21:30:20.745Z,100371.66
2023-08-05T21:35:25.871Z,100371.47
2023-08-05T21:40:29.648Z,100373.16
2023-08-05T21:45:33.381Z,100366.97
2023-08-05T21:50:40.934Z,100363.44
2023-08-05T21:55:46.358Z,100358.44
2023-08-05T22:00:50.353Z,100355.87
2023-08-05T22:05:55.457Z,100352.03
2023-08-05T22:10:59.243Z,100353.94
2023-08-05T22:16:03.212Z,100343.62
2023-08-05T22:21:08.498Z,100333.13
2023-08-05T22:26:12.378Z,100327.19
2023-08-05T22:31:16.176Z,100322.75
2023-08-05T22:36:21.308Z,100314.87
2023-08-05T22:41:25.052Z,100313.91
2023-08-05T22:46:28.778Z,100307.87
2023-08-05T22:51:33.845Z,100307.78
2023-08-05T22:56:37.544Z,100306.16
2023-08-05T23:01:41.314Z,100302.72
2023-08-05T23:06:46.522Z,100302.69
2023-08-05T23:11:52.314Z,100297.38
2023-08-05T23:16:56.519Z,100301.63
2023-08-05T23:22:01.787Z,100301.78
2023-08-05T23:27:06.449Z,100302.53
2023-08-05T23:32:10.216Z,100298.13
2023-08-05T23:37:15.306Z,100297.34
2023-08-05T23:42:19.957Z,100292.78
2023-08-05T23:47:23.829Z,100295.53
2023-08-05T23:52:29.042Z,100292.88
2023-08-05T23:57:33.383Z,100292.91
